createdAt,value
2022-08-17T00:00:52.350Z,93.13
2022-08-17T00:01:53.256Z,93.23
2022-08-17T00:02:51.993Z,93.23
2022-08-17T00:03:51.841Z,92.93
2022-08-17T00:04:51.832Z,92.83
2022-08-17T00:05:51.843Z,92.83
2022-08-17T00:06:51.804Z,92.53
2022-08-17T00:07:51.919Z,92.53
2022-08-17T00:08:51.784Z,92.53
2022-08-17T00:09:51.774Z,92.73
2022-08-17T00:10:51.796Z,92.73
2022-08-17T00:12:34.907Z,92.73
2022-08-17T00:12:52.866Z,92.83
2022-08-17T00:13:51.734Z,93.03
2022-08-17T00:14:51.725Z,93.23
2022-08-17T00:15:51.736Z,93.23
2022-08-17T00:16:57.017Z,93.43
2022-08-17T00:17:52.703Z,93.43
2022-08-17T00:18:56.758Z,93.43
2022-08-17T00:19:52.667Z,93.43
2022-08-17T00:20:51.674Z,93.43
2022-08-17T00:22:29.402Z,93.43
2022-08-17T00:22:52.842Z,93.58
2022-08-17T00:23:51.624Z,93.63
2022-08-17T00:24:51.606Z,93.63
2022-08-17T00:25:51.623Z,93.68
2022-08-17T00:26:51.585Z,93.68
2022-08-17T00:27:51.578Z,93.78
2022-08-17T00:28:51.566Z,93.88
2022-08-17T00:29:51.558Z,94.08
2022-08-17T00:30:53.573Z,93.88
2022-08-17T00:31:51.537Z,93.78
2022-08-17T00:33:10.957Z,93.78
2022-08-17T00:33:52.509Z,93.48
2022-08-17T00:34:51.498Z,93.58
2022-08-17T00:35:51.490Z,93.58
2022-08-17T00:36:51.507Z,93.48
2022-08-17T00:37:51.469Z,93.68
2022-08-17T00:38:51.451Z,93.68
2022-08-17T00:39:51.490Z,93.68
2022-08-17T00:40:51.834Z,93.48
2022-08-17T00:41:51.441Z,93.58
2022-08-17T00:42:51.576Z,93.38
2022-08-17T00:43:51.401Z,93.38
2022-08-17T00:44:51.390Z,93.48
2022-08-17T00:45:51.402Z,93.48
2022-08-17T00:46:51.380Z,93.68
2022-08-17T00:47:51.365Z,93.98
2022-08-17T00:48:51.340Z,93.98
2022-08-17T00:49:51.331Z,94.08
2022-08-17T00:50:51.341Z,93.88
2022-08-17T00:51:51.313Z,93.78
2022-08-17T00:52:51.578Z,93.88
2022-08-17T00:53:51.296Z,93.88
2022-08-17T00:54:51.283Z,93.93
2022-08-17T00:55:51.290Z,93.93
2022-08-17T00:56:51.255Z,93.88
2022-08-17T00:57:54.747Z,93.68
2022-08-17T00:58:51.235Z,93.48
2022-08-17T01:00:02.298Z,93.48
2022-08-17T01:00:52.290Z,93.58
2022-08-17T01:01:51.196Z,93.48
2022-08-17T01:02:51.258Z,93.48
2022-08-17T01:03:51.195Z,93.62
2022-08-17T01:04:51.165Z,93.73
2022-08-17T01:05:51.155Z,93.82
2022-08-17T01:06:51.136Z,93.93
2022-08-17T01:07:51.193Z,93.93
2022-08-17T01:08:51.136Z,93.93
2022-08-17T01:09:52.115Z,93.82
2022-08-17T01:10:59.457Z,93.68
2022-08-17T01:11:52.087Z,93.48
2022-08-17T01:12:51.210Z,93.28
2022-08-17T01:13:51.086Z,92.97
2022-08-17T01:14:51.057Z,92.97
2022-08-17T01:15:51.043Z,92.88
2022-08-17T01:16:51.059Z,92.68
2022-08-17T01:17:51.021Z,92.47
2022-08-17T01:18:51.011Z,92.37
2022-08-17T01:19:50.996Z,92.17
2022-08-17T01:20:50.980Z,92.07
2022-08-17T01:21:50.978Z,92.07
2022-08-17T01:22:51.214Z,91.97
2022-08-17T01:23:50.957Z,91.87
2022-08-17T01:24:50.963Z,91.72
2022-08-17T01:25:50.946Z,91.72
2022-08-17T01:26:50.921Z,91.63
2022-08-17T01:27:50.910Z,91.52
2022-08-17T01:28:54.572Z,91.42
2022-08-17T01:29:50.891Z,91.57
2022-08-17T01:30:58.639Z,91.47
2022-08-17T01:31:51.859Z,91.67
2022-08-17T01:32:51.089Z,92.17
2022-08-17T01:33:50.848Z,92.47
2022-08-17T01:34:51.042Z,92.57
2022-08-17T01:35:50.824Z,92.77
2022-08-17T01:36:50.811Z,93.02
2022-08-17T01:37:50.803Z,93.32
2022-08-17T01:38:50.810Z,93.62
2022-08-17T01:39:50.793Z,93.62
2022-08-17T01:40:50.762Z,93.62
2022-08-17T01:41:51.752Z,93.82
2022-08-17T01:42:50.915Z,93.93
2022-08-17T01:43:50.766Z,94.02
2022-08-17T01:44:50.714Z,94.13
2022-08-17T01:46:02.805Z,94.43
2022-08-17T01:46:51.703Z,94.53
2022-08-17T01:47:50.684Z,94.57
2022-08-17T01:48:50.693Z,94.57
2022-08-17T01:49:50.671Z,94.67
2022-08-17T01:50:50.652Z,94.87
2022-08-17T01:51:50.643Z,94.87
2022-08-17T01:52:50.775Z,94.87
2022-08-17T01:53:50.645Z,94.98
2022-08-17T01:54:50.604Z,95.07
2022-08-17T01:55:50.596Z,95.18
2022-08-17T01:56:50.587Z,95.48
2022-08-17T01:57:50.575Z,95.78
2022-08-17T01:58:50.588Z,95.98
2022-08-17T01:59:50.554Z,96.23
2022-08-17T02:01:00.226Z,96.33
2022-08-17T02:01:51.567Z,96.43
2022-08-17T02:02:50.640Z,96.33
2022-08-17T02:03:59.488Z,96.28
2022-08-17T02:04:51.519Z,96.23
2022-08-17T02:05:50.488Z,96.33
2022-08-17T02:06:54.021Z,96.33
2022-08-17T02:07:59.799Z,96.23
2022-08-17T02:09:02.754Z,96.23
2022-08-17T02:09:52.713Z,96.23
2022-08-17T02:10:50.458Z,96.23
2022-08-17T02:11:50.421Z,96.33
2022-08-17T02:12:50.545Z,96.53
2022-08-17T02:13:57.868Z,96.53
2022-08-17T02:14:51.387Z,96.83
2022-08-17T02:15:50.372Z,97.03
2022-08-17T02:16:50.389Z,97.13
2022-08-17T02:17:54.695Z,97.13
2022-08-17T02:18:50.340Z,96.93
2022-08-17T02:19:50.331Z,96.93
2022-08-17T02:20:50.321Z,96.73
2022-08-17T02:21:50.400Z,96.73
2022-08-17T02:22:50.391Z,96.93
2022-08-17T02:23:50.289Z,97.13
2022-08-17T02:24:58.909Z,97.03
2022-08-17T02:25:51.263Z,97.13
2022-08-17T02:26:50.283Z,97.49
2022-08-17T02:27:50.244Z,97.44
2022-08-17T02:28:50.223Z,97.44
2022-08-17T02:29:50.222Z,97.38
2022-08-17T02:31:01.081Z,97.58
2022-08-17T02:31:51.215Z,97.69
2022-08-17T02:32:50.371Z,97.89
2022-08-17T02:34:00.481Z,97.99
2022-08-17T02:34:51.164Z,98.19
2022-08-17T02:35:50.177Z,98.39
2022-08-17T02:36:50.135Z,98.49
2022-08-17T02:37:51.827Z,98.69
2022-08-17T02:38:51.143Z,98.79
2022-08-17T02:39:50.237Z,98.79
2022-08-17T02:40:50.098Z,98.59
2022-08-17T02:41:50.096Z,98.49
2022-08-17T02:42:50.243Z,98.49
2022-08-17T02:43:50.086Z,98.49
2022-08-17T02:44:50.054Z,98.64
2022-08-17T02:45:50.043Z,98.69
2022-08-17T02:46:50.034Z,98.74
2022-08-17T02:47:50.036Z,98.94
2022-08-17T02:48:50.007Z,99.04
2022-08-17T02:49:54.253Z,99.04
2022-08-17T02:50:50.978Z,99.24
2022-08-17T02:51:49.977Z,99.34
2022-08-17T02:52:57.305Z,99.44
2022-08-17T02:53:50.978Z,99.54
2022-08-17T02:54:49.936Z,99.54
2022-08-17T02:55:49.936Z,99.54
2022-08-17T02:56:49.919Z,99.34
2022-08-17T02:57:49.912Z,99.24
2022-08-17T02:58:49.919Z,99.14
2022-08-17T02:59:49.906Z,99.04
2022-08-17T03:00:49.869Z,99.04
2022-08-17T03:01:49.888Z,98.94
2022-08-17T03:02:49.983Z,98.84
2022-08-17T03:03:49.841Z,98.74
2022-08-17T03:04:49.853Z,98.64
2022-08-17T03:05:49.821Z,98.54
2022-08-17T03:06:49.829Z,98.64
2022-08-17T03:07:49.796Z,98.64
2022-08-17T03:08:49.782Z,98.54
2022-08-17T03:09:49.801Z,98.54
2022-08-17T03:10:49.762Z,98.64
2022-08-17T03:11:49.751Z,98.64
2022-08-17T03:12:49.955Z,98.54
2022-08-17T03:13:49.730Z,98.44
2022-08-17T03:14:49.741Z,98.44
2022-08-17T03:15:49.714Z,98.33
2022-08-17T03:16:49.691Z,98.24
2022-08-17T03:17:49.682Z,98.33
2022-08-17T03:18:49.670Z,98.58
2022-08-17T03:19:49.682Z,98.79
2022-08-17T03:20:49.715Z,98.79
2022-08-17T03:21:54.947Z,98.88
2022-08-17T03:22:53.448Z,98.99
2022-08-17T03:23:49.634Z,98.99
2022-08-17T03:24:50.604Z,98.94
2022-08-17T03:25:49.592Z,98.94
2022-08-17T03:26:49.584Z,99.19
2022-08-17T03:27:49.571Z,99.19
2022-08-17T03:28:49.583Z,99.29
2022-08-17T03:29:49.546Z,99.29
2022-08-17T03:30:49.564Z,99.29
2022-08-17T03:31:49.615Z,99.49
2022-08-17T03:32:49.736Z,99.69
2022-08-17T03:33:49.504Z,99.99
2022-08-17T03:34:49.498Z,99.99
2022-08-17T03:35:49.486Z,99.99
2022-08-17T03:36:49.496Z,99.99
2022-08-17T03:37:56.951Z,99.99
2022-08-17T03:38:50.446Z,99.89
2022-08-17T03:39:49.513Z,99.89
2022-08-17T03:40:57.892Z,99.99
2022-08-17T03:41:50.417Z,99.99
2022-08-17T03:42:49.503Z,99.99
2022-08-17T03:43:49.399Z,99.89
2022-08-17T03:44:49.378Z,99.79
2022-08-17T03:45:49.366Z,99.59
2022-08-17T03:46:49.378Z,99.74
2022-08-17T03:47:49.348Z,99.84
2022-08-17T03:48:49.341Z,99.84
2022-08-17T03:49:49.326Z,99.84
2022-08-17T03:50:49.323Z,99.64
2022-08-17T03:51:49.322Z,99.74
2022-08-17T03:52:51.808Z,99.74
2022-08-17T03:53:49.286Z,99.74
2022-08-17T03:54:49.274Z,99.54
2022-08-17T03:55:49.259Z,99.33
2022-08-17T03:56:49.270Z,99.04
2022-08-17T03:57:56.041Z,98.83
2022-08-17T03:58:49.229Z,98.58
2022-08-17T03:59:49.212Z,98.38
2022-08-17T04:00:49.207Z,98.33
2022-08-17T04:01:49.248Z,98.53
2022-08-17T04:02:49.361Z,98.73
2022-08-17T04:03:49.171Z,98.83
2022-08-17T04:04:49.161Z,98.73
2022-08-17T04:05:49.151Z,98.93
2022-08-17T04:06:49.162Z,98.93
2022-08-17T04:07:49.128Z,98.93
2022-08-17T04:08:49.120Z,98.93
2022-08-17T04:09:49.114Z,99.04
2022-08-17T04:10:49.095Z,98.93
2022-08-17T04:11:49.082Z,98.79
2022-08-17T04:12:49.404Z,98.58
2022-08-17T04:13:49.056Z,98.68
2022-08-17T04:14:53.088Z,98.79
2022-08-17T04:15:50.032Z,98.83
2022-08-17T04:16:49.024Z,98.93
2022-08-17T04:17:49.014Z,99.04
2022-08-17T04:18:49.023Z,99.13
2022-08-17T04:19:48.993Z,99.33
2022-08-17T04:20:48.984Z,99.44
2022-08-17T04:21:48.974Z,99.54
2022-08-17T04:22:49.139Z,99.19
2022-08-17T04:23:48.944Z,99.19
2022-08-17T04:24:48.944Z,99.08
2022-08-17T04:25:48.924Z,99.19
2022-08-17T04:26:53.232Z,99.08
2022-08-17T04:29:00.129Z,98.99
2022-08-17T04:30:00.138Z,98.88
2022-08-17T04:31:00.107Z,98.79
2022-08-17T04:32:00.079Z,98.58
2022-08-17T04:33:06.380Z,98.44
2022-08-17T04:34:01.079Z,98.44
2022-08-17T04:35:00.038Z,98.33
2022-08-17T04:36:00.064Z,98.03
2022-08-17T04:37:00.019Z,98.03
2022-08-17T04:38:00.014Z,97.73
2022-08-17T04:39:00.000Z,97.63
2022-08-17T04:40:03.833Z,97.63
2022-08-17T04:40:59.992Z,97.63
2022-08-17T04:41:59.987Z,97.53
2022-08-17T04:43:00.179Z,97.53
2022-08-17T04:43:59.957Z,97.43
2022-08-17T04:44:59.931Z,97.33
2022-08-17T04:45:59.948Z,97.18
2022-08-17T04:46:59.910Z,96.98
2022-08-17T04:47:59.901Z,96.78
2022-08-17T04:48:59.892Z,96.68
2022-08-17T04:49:59.873Z,96.58
2022-08-17T04:50:59.891Z,96.68
2022-08-17T04:52:04.108Z,96.58
2022-08-17T04:53:00.187Z,96.48
2022-08-17T04:53:59.843Z,96.48
2022-08-17T04:54:59.814Z,96.43
2022-08-17T04:55:59.813Z,96.13
2022-08-17T04:56:59.825Z,96.03
2022-08-17T04:57:59.813Z,96.03
2022-08-17T04:58:59.775Z,96.13
2022-08-17T04:59:59.770Z,96.03
2022-08-17T05:00:59.781Z,95.83
2022-08-17T05:01:59.766Z,95.83
2022-08-17T05:02:59.732Z,95.73
2022-08-17T05:03:59.722Z,95.83
2022-08-17T05:04:59.707Z,95.83
2022-08-17T05:05:59.703Z,95.87
2022-08-17T05:06:59.716Z,95.93
2022-08-17T05:07:59.675Z,96.17
2022-08-17T05:08:59.685Z,96.13
2022-08-17T05:09:59.657Z,96.13
2022-08-17T05:10:59.646Z,96.13
2022-08-17T05:11:59.636Z,96.23
2022-08-17T05:12:59.626Z,96.23
2022-08-17T05:13:59.617Z,95.93
2022-08-17T05:14:59.628Z,95.68
2022-08-17T05:15:59.589Z,95.68
2022-08-17T05:16:59.578Z,95.38
2022-08-17T05:17:59.567Z,95.28
2022-08-17T05:18:59.576Z,95.38
2022-08-17T05:19:59.548Z,95.28
2022-08-17T05:20:59.528Z,95.18
2022-08-17T05:21:59.529Z,95.07
2022-08-17T05:22:59.512Z,94.93
2022-08-17T05:23:59.600Z,94.73
2022-08-17T05:24:59.480Z,94.53
2022-08-17T05:25:59.478Z,94.43
2022-08-17T05:27:02.685Z,94.33
2022-08-17T05:28:00.479Z,94.23
2022-08-17T05:29:02.486Z,94.23
2022-08-17T05:29:59.431Z,94.23
2022-08-17T05:30:59.418Z,94.23
2022-08-17T05:31:59.411Z,94.08
2022-08-17T05:32:59.420Z,93.88
2022-08-17T05:33:59.418Z,93.78
2022-08-17T05:34:59.372Z,93.78
2022-08-17T05:35:59.370Z,93.68
2022-08-17T05:36:59.353Z,93.98
2022-08-17T05:37:59.344Z,93.98
2022-08-17T05:38:59.332Z,93.88
2022-08-17T05:39:59.379Z,93.78
2022-08-17T05:40:59.305Z,93.78
2022-08-17T05:41:59.302Z,93.63
2022-08-17T05:42:59.290Z,93.43
2022-08-17T05:43:59.275Z,93.23
2022-08-17T05:44:59.285Z,93.13
2022-08-17T05:45:59.255Z,92.83
2022-08-17T05:46:59.244Z,92.49
2022-08-17T05:47:59.236Z,92.29
2022-08-17T05:48:59.223Z,91.99
2022-08-17T05:49:59.243Z,91.88
2022-08-17T05:50:59.216Z,91.78
2022-08-17T05:51:59.185Z,91.48
2022-08-17T05:52:59.175Z,91.28
2022-08-17T05:53:59.172Z,91.03
2022-08-17T05:54:59.155Z,91.14
2022-08-17T05:55:59.177Z,91.14
2022-08-17T05:56:59.127Z,90.73
2022-08-17T05:57:59.125Z,90.53
2022-08-17T05:58:59.106Z,90.29
2022-08-17T05:59:59.104Z,88.68
2022-08-17T06:00:59.189Z,88.48
2022-08-17T06:01:59.085Z,87.88
2022-08-17T06:02:59.070Z,88.39
2022-08-17T06:03:59.060Z,88.48
2022-08-17T06:04:59.037Z,88.09
2022-08-17T06:05:59.037Z,87.74
2022-08-17T06:06:59.038Z,87.24
2022-08-17T06:07:59.010Z,86.74
2022-08-17T06:08:58.999Z,86.64
2022-08-17T06:09:58.988Z,86.94
2022-08-17T06:10:58.975Z,86.44
2022-08-17T06:11:58.974Z,86.04
2022-08-17T06:12:58.971Z,86.10
2022-08-17T06:13:58.968Z,85.60
2022-08-17T06:14:58.931Z,85.30
2022-08-17T06:15:58.920Z,84.99
2022-08-17T06:16:58.910Z,84.89
2022-08-17T06:17:58.927Z,85.49
2022-08-17T06:18:58.892Z,85.60
2022-08-17T06:19:58.880Z,85.89
2022-08-17T06:20:58.862Z,86.10
2022-08-17T06:21:58.852Z,85.55
2022-08-17T06:22:58.864Z,85.66
2022-08-17T06:23:58.835Z,85.66
2022-08-17T06:24:58.821Z,85.85
2022-08-17T06:25:58.812Z,85.25
2022-08-17T06:26:58.813Z,85.35
2022-08-17T06:27:58.783Z,85.82
2022-08-17T06:28:58.802Z,85.82
2022-08-17T06:29:58.773Z,85.31
2022-08-17T06:31:00.070Z,84.91
2022-08-17T06:31:58.744Z,85.21
2022-08-17T06:32:58.734Z,85.01
2022-08-17T06:33:58.754Z,84.77
2022-08-17T06:34:58.716Z,84.47
2022-08-17T06:35:58.707Z,84.17
2022-08-17T06:36:59.571Z,84.17
2022-08-17T06:37:58.677Z,83.87
2022-08-17T06:38:58.667Z,83.87
2022-08-17T06:39:58.832Z,84.17
2022-08-17T06:40:58.638Z,84.47
2022-08-17T06:41:58.644Z,84.47
2022-08-17T06:43:05.616Z,84.77
2022-08-17T06:43:59.617Z,84.27
2022-08-17T06:44:58.624Z,84.17
2022-08-17T06:45:58.614Z,84.67
2022-08-17T06:46:58.569Z,84.43
2022-08-17T06:47:58.567Z,84.03
2022-08-17T06:48:58.551Z,84.73
2022-08-17T06:49:58.551Z,85.23
2022-08-17T06:50:58.548Z,84.73
2022-08-17T06:51:58.526Z,84.73
2022-08-17T06:52:58.777Z,84.93
2022-08-17T06:53:58.500Z,85.23
2022-08-17T06:54:58.512Z,85.23
2022-08-17T06:55:58.512Z,85.13
2022-08-17T06:56:58.461Z,84.63
2022-08-17T06:57:58.455Z,84.73
2022-08-17T06:58:58.441Z,84.59
2022-08-17T06:59:58.431Z,84.69
2022-08-17T07:00:58.944Z,85.19
2022-08-17T07:01:58.432Z,84.39
2022-08-17T07:02:58.399Z,84.79
2022-08-17T07:03:58.390Z,84.79
2022-08-17T07:04:58.374Z,84.79
2022-08-17T07:05:58.362Z,84.69
2022-08-17T07:06:58.374Z,84.55
2022-08-17T07:07:58.342Z,84.55
2022-08-17T07:08:58.331Z,84.15
2022-08-17T07:09:58.333Z,83.85
2022-08-17T07:10:58.322Z,84.05
2022-08-17T07:11:58.324Z,83.81
2022-08-17T07:12:58.314Z,83.51
2022-08-17T07:13:58.283Z,83.31
2022-08-17T07:14:58.265Z,82.91
2022-08-17T07:15:58.262Z,82.37
2022-08-17T07:16:58.255Z,82.07
2022-08-17T07:17:58.515Z,82.57
2022-08-17T07:18:58.227Z,82.47
2022-08-17T07:19:58.223Z,82.28
2022-08-17T07:20:58.202Z,81.93
2022-08-17T07:21:58.196Z,81.63
2022-08-17T07:23:00.158Z,81.34
2022-08-17T07:23:58.201Z,81.04
2022-08-17T07:24:58.166Z,80.50
2022-08-17T07:25:58.155Z,80.60
2022-08-17T07:26:58.137Z,79.86
2022-08-17T07:27:58.290Z,78.56
2022-08-17T07:28:58.118Z,78.47
2022-08-17T07:29:58.138Z,78.33
2022-08-17T07:30:58.109Z,78.13
2022-08-17T07:31:58.081Z,77.63
2022-08-17T07:32:58.067Z,76.40
2022-08-17T07:33:58.058Z,76.00
2022-08-17T07:34:58.053Z,76.30
2022-08-17T07:35:58.065Z,75.87
2022-08-17T07:36:58.023Z,76.36
2022-08-17T07:37:58.024Z,75.37
2022-08-17T07:38:58.030Z,75.03
2022-08-17T07:40:04.470Z,74.73
2022-08-17T07:40:58.999Z,74.20
2022-08-17T07:41:58.980Z,73.90
2022-08-17T07:42:57.962Z,74.16
2022-08-17T07:43:57.975Z,74.07
2022-08-17T07:44:57.935Z,73.33
2022-08-17T07:45:57.956Z,72.74
2022-08-17T07:46:57.914Z,72.64
2022-08-17T07:47:57.904Z,72.01
2022-08-17T07:48:57.925Z,72.71
2022-08-17T07:49:57.884Z,72.50
2022-08-17T07:50:57.891Z,72.77
2022-08-17T07:51:57.885Z,71.78
2022-08-17T07:52:57.852Z,71.78
2022-08-17T07:54:13.214Z,71.48
2022-08-17T07:54:58.828Z,69.79
2022-08-17T07:55:57.834Z,70.25
2022-08-17T07:56:57.824Z,70.25
2022-08-17T07:57:57.804Z,70.35
2022-08-17T07:58:57.805Z,69.76
2022-08-17T07:59:57.798Z,70.06
2022-08-17T08:00:57.765Z,69.62
2022-08-17T08:01:58.210Z,69.23
2022-08-17T08:02:57.737Z,69.03
2022-08-17T08:03:57.726Z,69.43
2022-08-17T08:05:01.907Z,69.23
2022-08-17T08:05:57.716Z,67.94
2022-08-17T08:06:57.717Z,69.09
2022-08-17T08:07:57.708Z,69.69
2022-08-17T08:08:57.669Z,70.09
2022-08-17T08:09:57.690Z,70.09
2022-08-17T08:10:57.656Z,69.09
2022-08-17T08:11:57.659Z,69.09
2022-08-17T08:12:57.636Z,68.60
2022-08-17T08:13:57.616Z,68.01
2022-08-17T08:14:57.607Z,68.57
2022-08-17T08:15:57.619Z,68.46
2022-08-17T08:16:57.607Z,68.86
2022-08-17T08:17:57.597Z,69.46
2022-08-17T08:18:58.071Z,69.26
2022-08-17T08:19:57.553Z,68.73
2022-08-17T08:20:57.544Z,69.32
2022-08-17T08:21:57.523Z,68.83
2022-08-17T08:22:57.528Z,69.82
2022-08-17T08:23:57.525Z,69.62
2022-08-17T08:24:57.494Z,68.83
2022-08-17T08:25:57.489Z,68.63
2022-08-17T08:26:57.482Z,68.63
2022-08-17T08:27:57.464Z,68.24
2022-08-17T08:28:57.480Z,67.94
2022-08-17T08:29:57.446Z,67.74
2022-08-17T08:30:57.453Z,68.73
2022-08-17T08:31:57.414Z,69.09
2022-08-17T08:32:57.618Z,68.80
2022-08-17T08:33:57.396Z,67.74
2022-08-17T08:35:02.141Z,66.85
2022-08-17T08:35:58.397Z,68.33
2022-08-17T08:37:15.975Z,67.54
2022-08-17T08:37:58.351Z,67.31
2022-08-17T08:38:57.353Z,67.61
2022-08-17T08:39:57.491Z,67.41
2022-08-17T08:40:57.326Z,66.32
2022-08-17T08:41:57.334Z,66.22
2022-08-17T08:42:57.309Z,65.92
2022-08-17T08:43:57.288Z,65.83
2022-08-17T08:45:00.719Z,64.64
2022-08-17T08:45:58.269Z,64.61
2022-08-17T08:46:57.271Z,65.10
2022-08-17T08:47:57.271Z,66.06
2022-08-17T08:49:00.184Z,65.27
2022-08-17T08:50:05.597Z,64.28
2022-08-17T08:50:58.220Z,63.75
2022-08-17T08:51:57.211Z,64.25
2022-08-17T08:52:57.243Z,63.75
2022-08-17T08:53:57.192Z,63.13
2022-08-17T08:54:57.184Z,63.13
2022-08-17T08:55:57.164Z,63.49
2022-08-17T08:57:22.143Z,62.60
2022-08-17T08:57:58.165Z,61.49
2022-08-17T08:58:57.134Z,61.96
2022-08-17T08:59:58.157Z,62.25
2022-08-17T09:00:57.134Z,62.41
2022-08-17T09:01:57.187Z,62.81
2022-08-17T09:02:57.095Z,61.99
2022-08-17T09:04:06.724Z,59.23
2022-08-17T09:05:13.979Z,59.03
2022-08-17T09:05:58.055Z,58.81
2022-08-17T09:06:57.049Z,58.42
2022-08-17T09:07:57.502Z,58.12
2022-08-17T09:08:57.047Z,59.40
2022-08-17T09:09:59.318Z,58.78
2022-08-17T09:10:57.017Z,59.08
2022-08-17T09:12:01.987Z,60.55
2022-08-17T09:12:57.980Z,61.31
2022-08-17T09:13:56.968Z,61.71
2022-08-17T09:14:56.981Z,61.08
2022-08-17T09:15:56.939Z,60.30
2022-08-17T09:16:56.939Z,58.92
2022-08-17T09:18:28.518Z,56.66
2022-08-17T09:19:02.629Z,56.07
2022-08-17T09:19:57.921Z,56.46
2022-08-17T09:20:56.891Z,56.66
2022-08-17T09:21:56.882Z,56.43
2022-08-17T09:22:56.871Z,56.14
2022-08-17T09:23:56.851Z,56.83
2022-08-17T09:24:56.876Z,56.73
2022-08-17T09:25:56.832Z,55.75
2022-08-17T09:26:56.830Z,55.35
2022-08-17T09:27:56.814Z,55.85
2022-08-17T09:28:56.804Z,55.94
2022-08-17T09:29:56.792Z,56.51
2022-08-17T09:30:56.806Z,56.70
2022-08-17T09:31:56.773Z,56.90
2022-08-17T09:32:56.758Z,54.81
2022-08-17T09:33:56.754Z,54.71
2022-08-17T09:34:56.743Z,54.12
2022-08-17T09:35:56.747Z,54.91
2022-08-17T09:36:56.739Z,54.12
2022-08-17T09:37:56.707Z,54.91
2022-08-17T09:38:56.706Z,55.30
2022-08-17T09:39:56.742Z,56.09
2022-08-17T09:40:56.680Z,56.18
2022-08-17T09:41:56.689Z,56.28
2022-08-17T09:42:56.660Z,55.82
2022-08-17T09:43:56.641Z,55.13
2022-08-17T09:44:56.628Z,55.23
2022-08-17T09:45:56.618Z,53.85
2022-08-17T09:46:56.643Z,54.37
2022-08-17T09:47:56.598Z,53.58
2022-08-17T09:48:56.600Z,53.46
2022-08-17T09:49:56.579Z,53.75
2022-08-17T09:51:04.717Z,52.87
2022-08-17T09:51:57.573Z,53.06
2022-08-17T09:52:56.550Z,53.36
2022-08-17T09:54:09.504Z,52.77
2022-08-17T09:54:57.533Z,52.48
2022-08-17T09:55:56.512Z,53.36
2022-08-17T09:57:11.921Z,53.36
2022-08-17T09:57:57.504Z,52.97
2022-08-17T09:58:56.493Z,52.77
2022-08-17T09:59:56.474Z,52.18
2022-08-17T10:00:57.805Z,52.70
2022-08-17T10:01:56.454Z,54.08
2022-08-17T10:02:56.464Z,53.88
2022-08-17T10:03:56.457Z,53.58
2022-08-17T10:04:56.416Z,53.70
2022-08-17T10:05:57.004Z,54.20
2022-08-17T10:06:56.395Z,54.99
2022-08-17T10:07:56.406Z,54.08
2022-08-17T10:08:56.377Z,53.51
2022-08-17T10:09:56.378Z,54.20
2022-08-17T10:10:57.040Z,53.74
2022-08-17T10:11:56.338Z,53.14
2022-08-17T10:12:56.355Z,53.14
2022-08-17T10:13:56.317Z,53.51
2022-08-17T10:14:56.349Z,53.91
2022-08-17T10:15:56.299Z,53.58
2022-08-17T10:16:56.298Z,53.09
2022-08-17T10:17:56.271Z,53.29
2022-08-17T10:18:56.270Z,53.29
2022-08-17T10:19:56.277Z,53.68
2022-08-17T10:20:56.272Z,53.98
2022-08-17T10:22:01.189Z,54.54
2022-08-17T10:22:57.235Z,54.83
2022-08-17T10:23:56.217Z,54.14
2022-08-17T10:25:21.702Z,53.29
2022-08-17T10:25:57.195Z,53.70
2022-08-17T10:26:57.452Z,53.81
2022-08-17T10:27:56.173Z,54.13
2022-08-17T10:29:03.934Z,55.24
2022-08-17T10:29:56.171Z,55.63
2022-08-17T10:31:16.646Z,55.85
2022-08-17T10:31:57.130Z,57.17
2022-08-17T10:32:56.123Z,56.87
2022-08-17T10:33:56.102Z,56.67
2022-08-17T10:34:56.122Z,56.27
2022-08-17T10:35:57.245Z,56.60
2022-08-17T10:36:56.075Z,56.18
2022-08-17T10:37:56.066Z,55.79
2022-08-17T10:38:56.057Z,56.08
2022-08-17T10:39:56.079Z,55.79
2022-08-17T10:40:56.056Z,55.58
2022-08-17T10:41:56.020Z,55.79
2022-08-17T10:42:56.018Z,55.88
2022-08-17T10:44:38.693Z,55.66
2022-08-17T10:44:57.002Z,55.85
2022-08-17T10:46:09.477Z,56.05
2022-08-17T10:46:56.991Z,57.33
2022-08-17T10:47:59.001Z,57.63
2022-08-17T10:48:56.959Z,58.32
2022-08-17T10:49:55.942Z,57.82
2022-08-17T10:50:55.949Z,57.53
2022-08-17T10:51:55.910Z,57.63
2022-08-17T10:52:55.910Z,57.31
2022-08-17T10:53:55.920Z,56.91
2022-08-17T10:54:58.110Z,56.91
2022-08-17T10:55:55.871Z,56.32
2022-08-17T10:56:55.863Z,56.32
2022-08-17T10:57:55.881Z,56.42
2022-08-17T10:58:55.842Z,56.81
2022-08-17T10:59:55.833Z,57.40
2022-08-17T11:00:55.887Z,57.70
2022-08-17T11:01:55.806Z,56.52
2022-08-17T11:02:55.824Z,57.11
2022-08-17T11:03:55.783Z,57.21
2022-08-17T11:04:55.776Z,56.32
2022-08-17T11:05:55.763Z,56.71
2022-08-17T11:06:55.757Z,57.79
2022-08-17T11:07:55.745Z,57.70
2022-08-17T11:08:55.756Z,57.11
2022-08-17T11:09:55.755Z,57.01
2022-08-17T11:10:55.720Z,55.83
2022-08-17T11:11:55.697Z,56.64
2022-08-17T11:12:55.687Z,56.54
2022-08-17T11:13:55.680Z,56.94
2022-08-17T11:14:55.696Z,57.43
2022-08-17T11:15:58.871Z,57.63
2022-08-17T11:16:55.650Z,58.22
2022-08-17T11:17:55.639Z,59.11
2022-08-17T11:18:55.654Z,59.14
2022-08-17T11:19:55.620Z,59.50
2022-08-17T11:20:55.640Z,59.89
2022-08-17T11:21:55.602Z,60.09
2022-08-17T11:22:55.590Z,59.70
2022-08-17T11:23:55.581Z,59.47
2022-08-17T11:24:55.572Z,58.69
2022-08-17T11:25:55.581Z,58.59
2022-08-17T11:26:55.542Z,59.27
2022-08-17T11:27:55.532Z,59.17
2022-08-17T11:28:55.522Z,59.54
2022-08-17T11:30:01.397Z,59.44
2022-08-17T11:30:56.521Z,59.74
2022-08-17T11:31:55.484Z,60.03
2022-08-17T11:32:55.905Z,59.54
2022-08-17T11:33:55.465Z,59.34
2022-08-17T11:34:55.460Z,59.54
2022-08-17T11:35:55.464Z,59.54
2022-08-17T11:36:55.434Z,59.31
2022-08-17T11:37:55.427Z,59.71
2022-08-17T11:38:55.413Z,59.81
2022-08-17T11:39:55.494Z,59.51
2022-08-17T11:40:55.413Z,59.41
2022-08-17T11:41:55.377Z,58.72
2022-08-17T11:42:55.370Z,58.43
2022-08-17T11:43:55.378Z,58.60
2022-08-17T11:44:55.346Z,58.20
2022-08-17T11:45:55.337Z,58.76
2022-08-17T11:46:55.330Z,58.96
2022-08-17T11:48:23.653Z,57.98
2022-08-17T11:48:56.308Z,56.18
2022-08-17T11:49:55.289Z,56.09
2022-08-17T11:50:55.285Z,56.58
2022-08-17T11:51:55.272Z,55.69
2022-08-17T11:52:55.284Z,55.76
2022-08-17T11:54:14.740Z,55.37
2022-08-17T11:55:12.191Z,54.46
2022-08-17T11:55:56.251Z,54.39
2022-08-17T11:56:55.221Z,52.65
2022-08-17T11:57:55.241Z,53.14
2022-08-17T11:58:55.199Z,53.63
2022-08-17T11:59:55.194Z,55.13
2022-08-17T12:00:55.203Z,55.72
2022-08-17T12:01:55.163Z,56.21
2022-08-17T12:02:55.163Z,56.14
2022-08-17T12:03:56.013Z,55.16
2022-08-17T12:04:55.204Z,55.97
2022-08-17T12:05:55.149Z,55.48
2022-08-17T12:06:55.123Z,56.20
2022-08-17T12:07:55.094Z,56.39
2022-08-17T12:08:55.168Z,57.87
2022-08-17T12:09:55.107Z,59.27
2022-08-17T12:10:55.078Z,59.57
2022-08-17T12:12:12.609Z,58.12
2022-08-17T12:12:56.048Z,59.11
2022-08-17T12:13:55.039Z,59.03
2022-08-17T12:15:11.922Z,60.44
2022-08-17T12:15:56.037Z,59.66
2022-08-17T12:16:55.009Z,61.13
2022-08-17T12:17:55.384Z,64.91
2022-08-17T12:18:55.010Z,73.04
2022-08-17T12:19:54.977Z,73.07
2022-08-17T12:20:56.869Z,71.03
2022-08-17T12:21:54.988Z,69.62
2022-08-17T12:22:55.007Z,71.34
2022-08-17T12:23:54.950Z,71.97
2022-08-17T12:24:54.919Z,73.19
2022-08-17T12:25:54.910Z,76.29
2022-08-17T12:26:54.891Z,76.29
2022-08-17T12:28:06.223Z,75.14
2022-08-17T12:28:55.892Z,72.70
2022-08-17T12:29:54.870Z,73.00
2022-08-17T12:30:54.852Z,73.33
2022-08-17T12:31:54.844Z,76.50
2022-08-17T12:32:54.832Z,79.22
2022-08-17T12:33:54.843Z,79.56
2022-08-17T12:34:54.815Z,83.57
2022-08-17T12:35:58.902Z,84.76
2022-08-17T12:36:54.794Z,87.05
2022-08-17T12:37:54.803Z,89.23
2022-08-17T12:38:54.766Z,89.43
2022-08-17T12:39:54.836Z,89.73
2022-08-17T12:40:54.742Z,91.28
2022-08-17T12:41:57.428Z,90.24
2022-08-17T12:42:55.727Z,90.24
2022-08-17T12:43:54.709Z,89.70
2022-08-17T12:44:54.718Z,88.67
2022-08-17T12:45:55.521Z,87.97
2022-08-17T12:46:54.675Z,87.73
2022-08-17T12:47:54.667Z,86.05
2022-08-17T12:48:58.683Z,85.25
2022-08-17T12:49:55.652Z,83.83
2022-08-17T12:50:54.629Z,82.93
2022-08-17T12:51:54.627Z,82.93
2022-08-17T12:52:57.432Z,83.29
2022-08-17T12:53:55.627Z,84.28